Time;durP1;ratioP1;P1;durP2;ratioP2;P2;SDS_P1;SDS_P2;PMS_P1;PMS_P2;Temp;Humidity;BMP_temperature;BMP_pressure;BME280_temperature;BME280_humidity;BME280_pressure;Samples;Min_cycle;Max_cycle;Signal;HPM_P1;HPM_P2
2022/09/21 00:01:10;;;;;;;4.78;3.70;;;;;;;5.86;100.00;162098.00;4994996;28;20029;-66
2022/09/21 00:03:36;;;;;;;16.77;4.15;;;;;;;5.87;100.00;162100.72;4993779;28;20081;-66
2022/09/21 00:06:07;;;;;;;3.78;3.28;;;;;;;5.86;100.00;162099.38;4994746;28;20026;-66
2022/09/21 00:08:33;;;;;;;5.13;4.18;;;;;;;5.85;100.00;162096.69;4993755;28;20564;-65
2022/09/21 00:10:59;;;;;;;4.40;4.00;;;;;;;5.81;100.00;162085.88;4994621;28;20126;-65
2022/09/21 00:13:27;;;;;;;3.30;3.00;;;;;;;5.75;100.00;162068.44;4993249;28;20417;-66
2022/09/21 00:15:55;;;;;;;4.50;4.20;;;;;;;5.69;100.00;162055.00;4995202;28;20026;-65
2022/09/21 00:18:21;;;;;;;6.15;4.15;;;;;;;5.67;100.00;162049.59;4993061;28;20065;-65
2022/09/21 00:20:46;;;;;;;4.00;3.60;;;;;;;5.65;100.00;162044.19;4994431;28;20110;-63
2022/09/21 00:23:12;;;;;;;6.68;3.25;;;;;;;5.68;100.00;162052.28;4994559;28;20026;-63
2022/09/21 00:25:37;;;;;;;5.03;3.47;;;;;;;5.68;100.00;162052.28;4993456;28;20096;-63
2022/09/21 00:28:03;;;;;;;4.32;3.05;;;;;;;5.60;100.00;162030.75;4994288;28;20030;-63
2022/09/21 00:30:28;;;;;;;3.67;3.38;;;;;;;5.62;100.00;162034.78;4992851;28;20050;-63
2022/09/21 00:32:54;;;;;;;6.22;5.03;;;;;;;5.56;100.00;162021.34;4993648;28;20023;-63
2022/09/21 00:35:19;;;;;;;6.50;4.78;;;;;;;5.53;100.00;162011.94;4990961;28;20410;-63
2022/09/21 00:37:44;;;;;;;12.63;4.43;;;;;;;5.50;100.00;162003.81;4993564;28;20096;-64
2022/09/21 00:40:10;;;;;;;19.25;4.38;;;;;;;5.49;100.00;162001.13;4991739;28;20049;-64
2022/09/21 00:42:36;;;;;;;11.73;3.58;;;;;;;5.42;100.00;161982.31;4993375;28;20025;-64
2022/09/21 00:45:02;;;;;;;3.00;2.42;;;;;;;5.36;100.00;161967.53;4991656;28;20065;-64
2022/09/21 00:47:43;;;;;;;2.85;2.58;;;;;;;5.28;100.00;161946.00;4993514;28;20023;-64
2022/09/21 00:50:14;;;;;;;9.65;6.13;;;;;;;5.27;100.00;161943.31;4990742;28;20597;-64
2022/09/21 00:52:43;;;;;;;5.43;4.95;;;;;;;5.25;100.00;161939.25;4993583;28;20018;-66
2022/09/21 00:55:24;;;;;;;11.30;5.65;;;;;;;5.26;100.00;161941.94;4991254;28;20137;-66
2022/09/21 00:57:56;;;;;;;42.88;5.20;;;;;;;5.25;100.00;161939.25;4992799;28;20062;-66
2022/09/21 01:00:21;;;;;;;28.05;4.22;;;;;;;5.25;100.00;161939.25;4991457;28;20053;-66
2022/09/21 01:02:46;;;;;;;6.68;3.40;;;;;;;5.20;100.00;161927.19;4993197;28;20023;-66
2022/09/21 01:05:12;;;;;;;4.38;3.67;;;;;;;5.21;100.00;161928.50;4991051;28;20262;-66
2022/09/21 01:07:42;;;;;;;4.28;3.97;;;;;;;5.19;100.00;161923.13;4992996;28;20034;-66
2022/09/21 01:10:13;;;;;;;3.22;2.60;;;;;;;5.15;100.00;161912.38;4991373;28;20081;-66
2022/09/21 01:13:11;;;;;;;2.38;2.17;;;;;;;5.12;100.00;161904.28;4992662;28;20023;-66
2022/09/21 01:15:54;;;;;;;4.18;3.88;;;;;;;5.06;100.00;161889.53;4990974;28;20046;-66
2022/09/21 01:18:25;;;;;;;4.40;4.00;;;;;;;5.06;100.00;161890.84;4991053;28;20033;-66
2022/09/21 01:21:10;;;;;;;5.05;4.45;;;;;;;5.06;100.00;161889.53;4992849;28;20541;-67
2022/09/21 01:23:47;;;;;;;5.00;4.57;;;;;;;5.05;100.00;161886.81;4991529;28;20066;-67
2022/09/21 01:26:39;;;;;;;6.90;6.20;;;;;;;5.07;100.00;161892.16;4992502;28;20026;-67
2022/09/21 01:29:30;;;;;;;6.63;5.93;;;;;;;5.08;100.00;161896.25;4990997;28;20516;-67
2022/09/21 01:32:07;;;;;;;5.05;4.40;;;;;;;5.08;100.00;161896.25;4930467;28;1015671;-67
2022/09/21 01:34:42;;;;;;;29.98;4.50;;;;;;;5.01;100.00;161877.41;4991519;28;20607;-68
2022/09/21 01:37:23;;;;;;;4.00;3.70;;;;;;;4.97;100.00;161865.31;4993215;28;20394;-68
2022/09/21 01:39:55;;;;;;;4.75;4.35;;;;;;;4.93;100.00;161855.91;4992077;28;20402;-68
2022/09/21 01:42:23;;;;;;;18.70;3.00;;;;;;;4.84;100.00;161831.69;4992996;28;20201;-68
2022/09/21 01:44:49;;;;;;;53.65;4.22;;;;;;;4.84;100.00;161833.00;4992033;28;20041;-67
2022/09/21 01:47:17;;;;;;;35.03;3.42;;;;;;;4.79;100.00;161818.25;4992965;28;20041;-67
2022/09/21 01:49:49;;;;;;;4.40;2.33;;;;;;;4.73;100.00;161804.75;4991363;28;20506;-67
2022/09/21 01:52:36;;;;;;;2.00;1.90;;;;;;;4.70;100.00;161796.72;4993054;28;20033;-67
2022/09/21 01:55:11;;;;;;;5.65;4.15;;;;;;;4.70;100.00;161796.72;4990996;28;20096;-67
2022/09/21 01:58:01;;;;;;;7.10;4.72;;;;;;;4.72;100.00;161800.75;4992766;28;20108;-67
2022/09/21 02:00:28;;;;;;;6.32;5.65;;;;;;;4.73;100.00;161804.75;4990971;28;20406;-63
2022/09/21 02:03:04;;;;;;;6.93;5.60;;;;;;;4.72;100.00;161800.75;4992920;28;20425;-63
2022/09/21 02:05:30;;;;;;;10.10;5.93;;;;;;;4.72;100.00;161800.75;4991441;28;20049;-64
2022/09/21 02:07:57;;;;;;;6.75;4.93;;;;;;;4.70;100.00;161796.72;4993210;28;20030;-64
2022/09/21 02:10:29;;;;;;;6.18;5.63;;;;;;;4.67;100.00;161788.63;4991049;28;20106;-64
2022/09/21 02:13:00;;;;;;;6.82;6.30;;;;;;;4.66;100.00;161784.63;4992763;28;20022;-65
2022/09/21 02:15:31;;;;;;;29.25;5.28;;;;;;;4.71;100.00;161798.06;4991232;28;20054;-64
2022/09/21 02:18:26;;;;;;;32.78;6.18;;;;;;;4.63;100.00;161777.91;4991787;28;20117;-64
2022/09/21 02:20:57;;;;;;;5.88;3.50;;;;;;;4.60;100.00;161769.81;4967810;28;20418;-66
2022/09/21 02:23:31;;;;;;;3.72;3.53;;;;;;;4.56;100.00;161759.09;4984177;28;20030;-66
2022/09/21 02:26:12;;;;;;;7.65;4.80;;;;;;;4.62;100.00;161775.22;4990644;28;20524;-66
2022/09/21 02:28:46;;;;;;;6.78;6.07;;;;;;;4.59;100.00;161767.13;4991423;28;20026;-65
2022/09/21 02:31:21;;;;;;;8.75;6.65;;;;;;;4.56;100.00;161759.09;4992234;28;20399;-65
2022/09/21 02:33:58;;;;;;;7.25;6.25;;;;;;;4.56;100.00;161759.09;4990857;28;20045;-65
2022/09/21 02:36:48;;;;;;;8.30;5.68;;;;;;;4.54;100.00;161753.69;4992172;28;20084;-65
2022/09/21 02:39:24;;;;;;;5.57;5.07;;;;;;;4.47;100.00;161734.88;4990742;28;20045;-66
2022/09/21 02:42:11;;;;;;;11.05;5.55;;;;;;;4.49;100.00;161740.25;4992251;28;20058;-66
2022/09/21 02:44:39;;;;;;;6.78;5.85;;;;;;;4.47;100.00;161734.88;4991063;28;20045;-65
2022/09/21 02:47:20;;;;;;;7.07;6.20;;;;;;;4.50;100.00;161742.97;4991479;28;20030;-66
2022/09/21 02:49:53;;;;;;;6.20;5.60;;;;;;;4.48;100.00;161737.56;4990885;28;20108;-66
2022/09/21 02:52:20;;;;;;;8.80;6.85;;;;;;;4.40;100.00;161718.75;4992302;28;20022;-66
2022/09/21 02:54:49;;;;;;;7.63;6.20;;;;;;;4.43;100.00;161726.78;4990041;28;20565;-65
2022/09/21 02:57:17;;;;;;;11.38;6.47;;;;;;;4.48;100.00;161737.56;4992038;28;20037;-65
2022/09/21 02:59:42;;;;;;;7.68;6.88;;;;;;;4.48;100.00;161737.56;4990604;28;20046;-63
2022/09/21 03:02:11;;;;;;;6.40;5.75;;;;;;;4.39;100.00;161716.06;4991494;28;20138;-68
2022/09/21 03:04:42;;;;;;;11.98;6.40;;;;;;;4.42;100.00;161724.13;4990625;28;20046;-65
2022/09/21 03:07:08;;;;;;;8.52;6.15;;;;;;;4.33;100.00;161699.94;4991961;28;20089;-65
2022/09/21 03:09:33;;;;;;;6.97;5.20;;;;;;;4.30;100.00;161691.84;4989954;28;20410;-65
2022/09/21 03:11:59;;;;;;;7.63;5.85;;;;;;;4.32;100.00;161697.22;4991617;28;20050;-64
2022/09/21 03:14:24;;;;;;;5.88;5.35;;;;;;;4.28;100.00;161687.81;4990653;28;20387;-63
2022/09/21 03:16:49;;;;;;;7.13;5.95;;;;;;;4.24;100.00;161675.72;4991470;28;20030;-63
2022/09/21 03:19:15;;;;;;;6.05;5.55;;;;;;;4.24;100.00;161675.72;4990017;28;20034;-63
2022/09/21 03:21:41;;;;;;;7.30;6.40;;;;;;;4.19;100.00;161662.31;4991975;28;20018;-63
2022/09/21 03:24:06;;;;;;;7.70;6.55;;;;;;;4.21;100.00;161667.63;4990066;28;20514;-63
2022/09/21 03:26:32;;;;;;;7.65;6.13;;;;;;;4.19;100.00;161662.31;4991467;28;20471;-63
2022/09/21 03:28:57;;;;;;;6.30;5.70;;;;;;;4.13;100.00;161648.81;4990232;28;20034;-63
2022/09/21 03:31:23;;;;;;;7.07;6.38;;;;;;;4.09;100.00;161636.78;4991437;28;20588;-63
2022/09/21 03:33:48;;;;;;;12.82;7.18;;;;;;;4.07;100.00;161632.69;4989937;28;20138;-63
2022/09/21 03:36:14;;;;;;;10.50;5.57;;;;;;;4.03;100.00;161621.97;4991105;28;20109;-63
2022/09/21 03:38:39;;;;;;;7.78;7.05;;;;;;;4.01;100.00;161616.59;4990202;28;20031;-62
2022/09/21 03:41:05;;;;;;;11.18;8.05;;;;;;;3.99;100.00;161611.19;4991170;28;20033;-65
2022/09/21 03:43:30;;;;;;;8.68;5.88;;;;;;;3.97;100.00;161605.84;4989887;28;20085;-64
2022/09/21 03:45:56;;;;;;;7.60;6.90;;;;;;;3.97;100.00;161605.84;4991071;28;20393;-64
2022/09/21 03:48:22;;;;;;;6.60;5.88;;;;;;;3.93;100.00;161595.06;4991593;28;20026;-64
2022/09/21 03:50:47;;;;;;;93.00;6.60;;;;;;;3.88;100.00;161581.66;4990112;28;20046;-64
2022/09/21 03:53:13;;;;;;;120.85;12.38;;;;;;;3.84;100.00;161570.88;4991109;28;20033;-61
2022/09/21 03:55:39;;;;;;;43.53;6.07;;;;;;;3.83;100.00;161568.22;4989692;28;20042;-61
2022/09/21 03:58:05;;;;;;;50.42;9.00;;;;;;;3.85;100.00;161573.56;4991018;28;20371;-61
2022/09/21 04:00:31;;;;;;;7.97;5.60;;;;;;;3.79;100.00;161560.16;4989995;28;20049;-61
2022/09/21 04:02:56;;;;;;;87.47;6.85;;;;;;;3.74;100.00;161546.72;4991141;28;20025;-62
2022/09/21 04:05:22;;;;;;;78.18;6.47;;;;;;;3.73;100.00;161542.66;4990015;28;20051;-61
2022/09/21 04:07:49;;;;;;;7.93;5.57;;;;;;;3.70;100.00;161534.63;4991678;28;20022;-60
2022/09/21 04:10:18;;;;;;;5.60;5.15;;;;;;;3.69;100.00;161533.25;4989107;28;20038;-64
2022/09/21 04:12:44;;;;;;;6.45;5.85;;;;;;;3.68;100.00;161529.25;4990930;28;20034;-64
2022/09/21 04:15:17;;;;;;;11.98;7.05;;;;;;;3.72;100.00;161541.34;4989089;28;20052;-64
2022/09/21 04:17:43;;;;;;;6.65;6.03;;;;;;;3.74;100.00;161546.72;4990707;28;20030;-64
2022/09/21 04:20:08;;;;;;;10.60;6.40;;;;;;;3.71;100.00;161538.63;4989402;28;20046;-65
2022/09/21 04:22:35;;;;;;;6.00;5.40;;;;;;;3.73;100.00;161544.03;4990896;28;20042;-64
2022/09/21 04:25:01;;;;;;;11.00;6.53;;;;;;;3.73;100.00;161544.03;4992037;28;20521;-64
2022/09/21 04:27:27;;;;;;;8.88;7.72;;;;;;;3.71;100.00;161538.63;4994962;28;20061;-64
2022/09/21 04:29:52;;;;;;;8.93;7.68;;;;;;;3.70;100.00;161534.63;4993515;28;20559;-64
2022/09/21 04:32:18;;;;;;;7.45;6.72;;;;;;;3.68;100.00;161530.59;4994097;28;20117;-64
2022/09/21 04:34:43;;;;;;;9.95;7.07;;;;;;;3.62;100.00;161514.44;4993307;28;20050;-64
2022/09/21 04:37:12;;;;;;;8.93;7.43;;;;;;;3.61;100.00;161513.13;4991933;28;20022;-67
2022/09/21 04:39:37;;;;;;;10.95;9.85;;;;;;;3.61;100.00;161511.81;4984638;28;20046;-67
2022/09/21 04:42:03;;;;;;;11.65;8.15;;;;;;;3.61;100.00;161511.81;4993458;28;20050;-67
2022/09/21 04:44:29;;;;;;;12.88;8.00;;;;;;;3.61;100.00;161511.81;4992312;28;20048;-67
2022/09/21 04:46:55;;;;;;;10.38;9.48;;;;;;;3.59;100.00;161506.41;4994116;28;20394;-67
2022/09/21 04:49:21;;;;;;;11.50;8.82;;;;;;;3.52;100.00;161487.59;4992966;28;20047;-67
2022/09/21 04:51:46;;;;;;;9.65;7.57;;;;;;;3.54;100.00;161493.00;4994580;28;20025;-66
2022/09/21 04:54:12;;;;;;;10.05;7.00;;;;;;;3.55;100.00;161495.63;4992544;28;20698;-66
2022/09/21 04:56:37;;;;;;;12.43;8.02;;;;;;;3.55;100.00;161495.63;4994012;28;20032;-66
2022/09/21 04:59:03;;;;;;;11.50;7.88;;;;;;;3.56;100.00;161498.34;4992642;28;20096;-65
2022/09/21 05:01:28;;;;;;;9.45;7.80;;;;;;;3.56;100.00;161498.34;4993956;28;20069;-65
2022/09/21 05:03:54;;;;;;;13.68;7.93;;;;;;;3.56;100.00;161499.69;4992853;28;20034;-65
2022/09/21 05:06:19;;;;;;;9.68;7.65;;;;;;;3.54;100.00;161493.00;4994044;28;20030;-67
2022/09/21 05:11:29;;;;;;;6.90;6.15;;;;;;;3.50;100.00;161483.53;4994262;28;20595;-62
2022/09/21 05:13:54;;;;;;;8.57;5.95;;;;;;;3.47;100.00;161475.50;4992811;28;20030;-62
2022/09/21 05:16:19;;;;;;;10.70;6.97;;;;;;;3.43;100.00;161466.09;4991841;28;20478;-62
2022/09/21 05:18:45;;;;;;;8.63;7.70;;;;;;;3.40;100.00;161456.69;4992524;28;20429;-62
2022/09/21 05:21:12;;;;;;;12.07;8.80;;;;;;;3.40;100.00;161458.03;4993615;28;20030;-61
2022/09/21 05:23:38;;;;;;;9.77;8.13;;;;;;;3.39;100.00;161455.34;4992158;28;20030;-62
2022/09/21 05:26:04;;;;;;;8.90;7.10;;;;;;;3.33;100.00;161439.22;4993502;28;20026;-62
2022/09/21 05:28:29;;;;;;;9.43;7.75;;;;;;;3.34;100.00;161441.91;4992130;28;20386;-61
2022/09/21 05:31:16;;;;;;;8.90;8.02;;;;;;;3.38;100.00;161452.69;4993011;28;20053;-60
2022/09/21 05:33:47;;;;;;;9.07;7.03;;;;;;;3.41;100.00;161460.72;4992286;28;20038;-63
2022/09/21 05:36:31;;;;;;;8.15;7.28;;;;;;;3.45;100.00;161471.50;4992532;28;20052;-58
2022/09/21 05:38:56;;;;;;;12.07;9.18;;;;;;;3.45;100.00;161470.13;4991659;28;20096;-58
2022/09/21 05:41:22;;;;;;;7.30;6.60;;;;;;;3.45;100.00;161471.50;4993304;28;20030;-58
2022/09/21 05:43:48;;;;;;;5.57;5.07;;;;;;;3.48;100.00;161478.22;4991813;28;20109;-58
2022/09/21 05:46:35;;;;;;;8.18;6.90;;;;;;;3.46;100.00;161474.13;4993461;28;20027;-58
2022/09/21 05:49:45;;;;;;;13.60;7.75;;;;;;;3.48;100.00;161479.53;4991876;28;20034;-58
2022/09/21 05:52:59;;;;;;;7.85;7.10;;;;;;;3.54;100.00;161493.00;4970168;28;20057;-58
2022/09/21 05:55:50;;;;;;;9.10;7.78;;;;;;;3.53;100.00;161491.63;4991669;28;20046;-58
2022/09/21 05:58:20;;;;;;;6.70;6.10;;;;;;;3.56;100.00;161498.34;4992828;28;20036;-58
2022/09/21 06:01:07;;;;;;;9.77;6.95;;;;;;;3.56;100.00;161498.34;4990893;28;22250;-58
2022/09/21 06:03:35;;;;;;;7.32;6.63;;;;;;;3.50;100.00;161483.53;4991771;28;20030;-58
2022/09/21 06:06:00;;;;;;;7.30;6.45;;;;;;;3.44;100.00;161468.81;4992820;28;20036;-58
2022/09/21 06:08:26;;;;;;;6.60;6.00;;;;;;;3.60;100.00;161510.44;4991405;28;20031;-58
2022/09/21 06:10:53;;;;;;;6.90;5.95;;;;;;;3.65;100.00;161523.84;4993046;28;20098;-58
2022/09/21 06:13:18;;;;;;;9.63;7.28;;;;;;;3.73;100.00;161544.03;4992915;28;20373;-58
2022/09/21 06:15:44;;;;;;;7.93;7.22;;;;;;;3.81;100.00;161565.53;4990855;28;20042;-58
2022/09/21 06:18:09;;;;;;;9.23;8.32;;;;;;;3.87;100.00;161578.97;4992669;28;20389;-58
2022/09/21 06:20:35;;;;;;;12.75;8.10;;;;;;;3.96;100.00;161603.16;4991564;28;20061;-58
2022/09/21 06:23:06;;;;;;;11.23;8.68;;;;;;;4.07;100.00;161631.38;4991865;28;20541;-59
2022/09/21 06:25:31;;;;;;;9.73;8.82;;;;;;;4.13;100.00;161648.81;4991429;28;20039;-58
2022/09/21 06:28:04;;;;;;;10.80;9.65;;;;;;;4.35;100.00;161705.31;4992357;28;20033;-58
2022/09/21 06:30:33;;;;;;;11.35;10.10;;;;;;;4.47;100.00;161734.88;4990626;28;20056;-59
2022/09/21 06:33:02;;;;;;;14.50;10.07;;;;;;;4.60;100.00;161769.81;4990851;28;20145;-58
2022/09/21 06:35:29;;;;;;;13.30;10.98;;;;;;;4.74;100.00;161807.47;5001436;28;20101;-58
2022/09/21 06:38:06;;;;;;;14.00;10.30;;;;;;;4.89;100.00;161845.09;5000491;28;20251;-58
2022/09/21 06:40:33;;;;;;;15.18;12.73;;;;;;;5.12;100.00;161904.28;4990795;28;20101;-58
2022/09/21 06:43:00;;;;;;;19.75;13.40;;;;;;;5.35;100.00;161966.16;4992033;28;20022;-58
2022/09/21 06:45:27;;;;;;;18.27;15.80;;;;;;;5.58;100.00;162025.38;4990334;28;20113;-58
2022/09/21 06:47:52;;;;;;;24.52;17.48;;;;;;;5.82;100.00;162087.25;4992123;28;20026;-58
2022/09/21 06:50:18;;;;;;;21.90;17.25;;;;;;;6.08;100.00;162154.56;4990519;28;20041;-58
2022/09/21 06:52:44;;;;;;;20.92;18.70;;;;;;;6.23;100.00;162193.63;4991538;28;20080;-58
2022/09/21 06:55:10;;;;;;;21.05;18.58;;;;;;;6.36;100.00;162228.63;4990410;28;20039;-58
2022/09/21 06:57:37;;;;;;;24.38;19.20;;;;;;;6.57;100.00;162283.81;4991772;28;20416;-58
2022/09/21 07:00:04;;;;;;;31.35;22.05;;;;;;;6.74;100.00;162326.94;4990003;28;20050;-58
2022/09/21 07:02:30;;;;;;;28.58;22.35;;;;;;;6.96;100.00;162386.13;4992056;28;20030;-58
2022/09/21 07:04:57;;;;;;;28.08;20.88;;;;;;;7.19;100.00;162445.38;4990601;28;20456;-58
2022/09/21 07:07:23;;;;;;;31.38;23.35;;;;;;;7.45;100.00;162512.75;4991445;28;20046;-58
2022/09/21 07:09:48;;;;;;;24.38;20.90;;;;;;;7.45;100.00;162512.75;4990498;28;20084;-58
2022/09/21 07:12:15;;;;;;;28.88;22.23;;;;;;;7.73;100.00;162585.47;4991635;28;20390;-58
2022/09/21 07:14:40;;;;;;;24.33;19.33;;;;;;;7.94;100.00;162642.06;4990392;28;20133;-58
2022/09/21 07:17:07;;;;;;;26.70;22.88;;;;;;;8.09;100.00;162679.81;4991530;28;20113;-59
2022/09/21 07:19:32;;;;;;;28.63;21.95;;;;;;;8.25;100.00;162722.94;4990448;28;20034;-59
2022/09/21 07:21:58;;;;;;;26.92;19.55;;;;;;;8.35;100.00;162747.22;4991149;28;20509;-59
2022/09/21 07:24:23;;;;;;;27.95;22.58;;;;;;;8.62;100.00;162817.34;4990498;28;20433;-59
2022/09/21 07:26:49;;;;;;;32.53;20.38;;;;;;;8.84;100.00;162876.66;4991698;28;20057;-59
2022/09/21 07:29:14;;;;;;;19.45;16.02;;;;;;;9.13;100.00;162952.16;4989756;28;20039;-59
2022/09/21 07:31:43;;;;;;;25.90;18.08;;;;;;;9.30;100.00;162995.34;4991579;28;20043;-59
2022/09/21 07:34:09;;;;;;;21.65;15.13;;;;;;;9.53;100.00;163056.06;4990271;28;20035;-59
2022/09/21 07:36:34;;;;;;;18.92;14.50;;;;;;;9.53;100.00;163056.06;4989064;28;20033;-59
2022/09/21 07:39:01;;;;;;;20.52;13.00;;;;;;;10.27;100.00;163248.97;5000581;28;20041;-59
2022/09/21 07:41:26;;;;;;;14.38;10.38;;;;;;;10.27;100.00;163248.97;4993300;28;20077;-59
2022/09/21 07:43:52;;;;;;;13.30;8.27;;;;;;;12.16;100.00;163743.31;4995801;28;20038;-59
2022/09/21 07:46:17;;;;;;;15.27;9.68;;;;;;;12.94;100.00;163948.69;4997041;28;20035;-59
2022/09/21 07:48:43;;;;;;;12.18;7.85;;;;;;;13.42;100.00;164074.47;5009464;28;20037;-59
2022/09/21 07:51:11;;;;;;;8.13;7.13;;;;;;;13.67;100.00;164138.00;5010498;28;20030;-59
2022/09/21 07:53:37;;;;;;;15.63;8.73;;;;;;;13.80;100.00;164173.22;5007919;28;20105;-59
2022/09/21 07:56:07;;;;;;;10.68;7.32;;;;;;;13.58;100.00;164116.41;4994188;28;20049;-59
2022/09/21 08:01:21;;;;;;;14.82;9.00;;;;;;;-146.58;100.00;69501.63;5010914;28;20048;-59
2022/09/21 08:03:51;;;;;;;14.10;7.63;;;;;;;13.05;100.00;163975.75;5011857;28;20042;-58
2022/09/21 08:06:16;;;;;;;12.20;7.93;;;;;;;12.80;100.00;163912.22;5014339;28;20485;-59
2022/09/21 08:08:42;;;;;;;14.93;7.53;;;;;;;12.98;100.00;163959.53;5013572;28;20045;-59
2022/09/21 08:11:08;;;;;;;9.30;6.80;;;;;;;12.78;100.00;163906.81;5001081;28;20022;-59
2022/09/21 08:13:33;;;;;;;11.55;8.88;;;;;;;13.27;100.00;164033.84;5001340;28;20481;-60
2022/09/21 08:16:00;;;;;;;8.70;5.97;;;;;;;13.56;100.00;164111.00;5010199;28;20433;-59
2022/09/21 08:18:26;;;;;;;15.35;7.53;;;;;;;13.70;100.00;164147.47;4993623;28;20030;-59
2022/09/21 08:20:59;;;;;;;11.00;6.25;;;;;;;13.84;100.00;164184.00;5005452;28;20081;-59
2022/09/21 08:23:27;;;;;;;7.57;5.78;;;;;;;13.77;100.00;164165.06;4993205;28;20401;-59
2022/09/21 08:26:00;;;;;;;13.25;6.53;;;;;;;13.56;100.00;164109.63;4997995;28;20022;-59
2022/09/21 08:28:27;;;;;;;9.82;7.30;;;;;;;13.35;100.00;164054.16;4993443;28;20033;-59
2022/09/21 08:30:53;;;;;;;11.48;7.90;;;;;;;13.46;100.00;164085.31;4996422;28;20430;-59
2022/09/21 08:33:18;;;;;;;12.80;7.15;;;;;;;13.21;100.00;164019.03;4996915;28;20033;-59
2022/09/21 08:35:51;;;;;;;7.32;5.75;;;;;;;13.41;100.00;164070.44;4992648;28;20049;-59
2022/09/21 08:38:16;;;;;;;10.68;6.07;;;;;;;13.54;100.00;164105.56;4994336;28;20026;-59
2022/09/21 08:40:42;;;;;;;11.80;8.07;;;;;;;13.63;100.00;164129.94;4993230;28;20046;-59
2022/09/21 08:43:14;;;;;;;18.35;8.95;;;;;;;13.79;100.00;164170.50;4993952;28;20023;-59
2022/09/21 08:45:42;;;;;;;14.18;7.10;;;;;;;13.99;100.00;164223.25;4993009;28;20065;-59
2022/09/21 08:48:21;;;;;;;13.82;7.07;;;;;;;14.17;100.00;164270.59;4994445;28;20022;-59
2022/09/21 08:50:54;;;;;;;13.55;8.00;;;;;;;14.15;100.00;164265.19;4992735;28;20088;-59
2022/09/21 08:53:45;;;;;;;12.27;6.28;;;;;;;14.25;100.00;164292.25;4994161;28;20534;-59
2022/09/21 08:56:12;;;;;;;13.88;6.93;;;;;;;14.35;100.00;164316.56;4992745;28;20038;-59
2022/09/21 08:58:42;;;;;;;10.85;6.20;;;;;;;14.50;100.00;164357.16;4992882;28;20033;-59
2022/09/21 09:01:23;;;;;;;9.27;7.65;;;;;;;14.62;100.00;164388.28;4993922;28;20117;-59
2022/09/21 09:04:01;;;;;;;14.80;7.93;;;;;;;14.62;100.00;164386.94;4992836;28;20038;-59
2022/09/21 09:06:32;;;;;;;6.67;5.30;;;;;;;14.60;100.00;164384.25;4994072;28;20030;-59
2022/09/21 09:09:21;;;;;;;16.73;7.22;;;;;;;14.52;100.00;164361.25;4992526;28;20402;-59
2022/09/21 09:12:00;;;;;;;;;;;;;;;14.68;100.00;164404.56;4994406;28;20072;-59
2022/09/21 09:15:03;;;;;;;8.30;6.15;;;;;;;14.74;100.00;164419.47;4992298;28;20431;-59
2022/09/21 09:17:59;;;;;;;10.95;6.57;;;;;;;14.82;100.00;164439.78;4993765;28;20109;-59
2022/09/21 09:20:38;;;;;;;18.15;6.60;;;;;;;15.14;100.00;164523.66;4989968;28;20578;-59
2022/09/21 09:23:11;;;;;;;9.35;6.13;;;;;;;15.23;100.00;164549.38;4993918;28;20105;-59
2022/09/21 09:25:40;;;;;;;11.27;5.45;;;;;;;15.42;100.00;164598.13;4991864;28;20129;-59
2022/09/21 09:28:19;;;;;;;13.02;5.32;;;;;;;15.29;100.00;164562.94;4993457;28;20525;-59
2022/09/21 09:30:44;;;;;;;16.52;5.80;;;;;;;15.30;100.00;164565.66;4992876;28;20119;-59
2022/09/21 09:33:17;;;;;;;14.25;6.63;;;;;;;15.41;100.00;164595.41;5009072;28;20471;-59
2022/09/21 09:35:45;;;;;;;8.57;5.50;;;;;;;15.58;100.00;164638.75;4997747;28;20505;-59
2022/09/21 09:38:27;;;;;;;9.23;5.65;;;;;;;15.80;100.00;164696.94;5011280;28;20092;-59
2022/09/21 09:41:18;;;;;;;10.50;5.82;;;;;;;15.92;100.00;164728.13;5006698;28;20042;-59
2022/09/21 09:44:05;;;;;;;8.05;3.40;;;;;;;16.10;100.00;164776.91;4991744;28;20540;-59
2022/09/21 09:46:52;;;;;;;10.65;5.18;;;;;;;16.18;100.00;164798.56;4974188;28;20106;-59
2022/09/21 09:49:47;;;;;;;11.65;4.85;;;;;;;16.32;100.00;164835.13;5008991;28;20124;-59
2022/09/21 09:52:15;;;;;;;5.65;3.63;;;;;;;16.54;100.00;164890.66;5012053;28;20061;-59
2022/09/21 09:54:40;;;;;;;5.35;3.28;;;;;;;16.64;100.00;164917.78;5003512;28;20433;-59
2022/09/21 09:57:08;;;;;;;8.32;3.95;;;;;;;16.76;100.00;164948.91;5005013;28;20025;-59
2022/09/21 09:59:48;;;;;;;5.00;3.38;;;;;;;16.94;100.00;164997.75;4996688;28;20505;-59
2022/09/21 10:02:18;;;;;;;4.55;2.65;;;;;;;16.92;100.00;164992.31;4992689;28;20032;-59
2022/09/21 10:05:02;;;;;;;8.15;3.47;;;;;;;17.00;100.00;165011.28;4992263;28;20466;-59
2022/09/21 10:07:44;;;;;;;23.65;4.07;;;;;;;17.15;100.00;165051.94;4994248;28;20064;-59
2022/09/21 10:10:28;;;;;;;8.82;2.78;;;;;;;17.24;100.00;165074.94;5000958;28;20046;-59
2022/09/21 10:13:00;;;;;;;6.35;3.28;;;;;;;17.29;100.00;165088.53;4994913;28;20069;-59
2022/09/21 10:15:26;;;;;;;6.15;3.45;;;;;;;17.06;100.00;165028.91;4994672;28;20042;-59
2022/09/21 10:18:20;;;;;;;6.18;2.47;;;;;;;17.35;100.00;165104.78;4992963;28;20480;-59
2022/09/21 10:21:03;;;;;;;13.60;3.75;;;;;;;17.53;100.00;165150.88;4993387;28;20466;-59
2022/09/21 10:23:30;;;;;;;4.95;2.60;;;;;;;17.12;100.00;165045.16;4994127;28;20026;-59
2022/09/21 10:26:04;;;;;;;8.65;2.95;;;;;;;16.98;100.00;165007.22;4991719;28;20034;-59
2022/09/21 10:28:30;;;;;;;7.93;3.15;;;;;;;17.11;100.00;165042.44;4985430;28;20088;-59
2022/09/21 10:31:22;;;;;;;10.00;3.80;;;;;;;17.55;100.00;165156.28;4991857;28;20499;-59
2022/09/21 10:34:12;;;;;;;6.68;2.83;;;;;;;17.42;100.00;165122.44;4968786;28;20046;-59
2022/09/21 10:36:38;;;;;;;6.97;4.03;;;;;;;17.27;100.00;165084.50;5007350;28;20385;-59
2022/09/21 10:39:16;;;;;;;5.40;1.83;;;;;;;16.91;100.00;164989.53;5003236;28;20038;-59
2022/09/21 10:41:50;;;;;;;5.13;3.17;;;;;;;16.70;100.00;164934.03;5011344;28;20108;-59
2022/09/21 10:44:18;;;;;;;6.70;2.20;;;;;;;16.24;100.00;164812.09;5003316;28;20045;-58
2022/09/21 10:46:46;;;;;;;5.80;2.17;;;;;;;15.92;100.00;164728.13;5011580;28;20029;-59
2022/09/21 10:49:18;;;;;;;3.60;2.28;;;;;;;15.76;100.00;164686.13;5001068;28;20444;-59
2022/09/21 10:51:46;;;;;;;7.53;2.45;;;;;;;15.61;100.00;164646.84;5011861;28;20036;-60
2022/09/21 10:54:18;;;;;;;3.97;2.15;;;;;;;15.44;100.00;164602.16;5010286;28;20120;-59
2022/09/21 10:56:52;;;;;;;4.82;3.15;;;;;;;15.30;100.00;164565.66;5011413;28;20536;-59
2022/09/21 10:59:17;;;;;;;5.90;2.70;;;;;;;15.13;100.00;164522.31;5009928;28;20046;-59
2022/09/21 11:01:54;;;;;;;5.03;2.33;;;;;;;15.05;100.00;164500.66;5011575;28;20164;-59
2022/09/21 11:04:30;;;;;;;7.20;3.42;;;;;;;14.97;100.00;164479.00;5009841;28;20084;-59
2022/09/21 11:07:15;;;;;;;5.45;2.60;;;;;;;15.00;100.00;164488.47;5011676;28;20097;-59
2022/09/21 11:10:22;;;;;;;12.75;6.18;;;;;;;14.97;100.00;164479.00;5010138;28;20080;-59
2022/09/21 11:13:04;;;;;;;13.82;5.53;;;;;;;14.91;100.00;164465.50;4950398;29;20026;-59
2022/09/21 11:15:38;;;;;;;15.55;4.57;;;;;;;14.82;100.00;164439.78;5006827;28;20042;-59
2022/09/21 11:18:33;;;;;;;16.10;4.95;;;;;;;14.77;100.00;164427.59;5011038;28;20084;-59
2022/09/21 11:21:33;;;;;;;3.65;2.38;;;;;;;14.78;100.00;164430.25;5009858;28;20034;-60
2022/09/21 11:24:15;;;;;;;10.23;3.72;;;;;;;14.82;100.00;164441.13;5009918;28;20088;-59
2022/09/21 11:26:55;;;;;;;4.80;3.13;;;;;;;14.82;100.00;164441.13;5011135;28;20088;-59
2022/09/21 11:29:25;;;;;;;8.98;2.50;;;;;;;14.86;100.00;164451.91;5009659;28;20057;-59
2022/09/21 11:32:09;;;;;;;3.15;2.17;;;;;;;14.92;100.00;164466.81;5011217;28;20085;-59
2022/09/21 11:35:19;;;;;;;4.90;2.33;;;;;;;15.06;100.00;164503.38;5013638;28;20037;-59
2022/09/21 11:38:04;;;;;;;4.72;2.13;;;;;;;15.24;100.00;164550.75;4954547;29;20039;-59
2022/09/21 11:40:46;;;;;;;4.43;2.45;;;;;;;15.32;100.00;164571.03;4952886;29;20043;-59
2022/09/21 11:43:28;;;;;;;9.90;3.83;;;;;;;15.39;100.00;164589.97;4997149;28;20046;-59
2022/09/21 11:46:33;;;;;;;5.93;1.83;;;;;;;15.50;100.00;164619.78;5013953;28;20054;-59